Hlavní strana
METAR-TAF:

METAR-TAF

Letiště :

Ashe County Airport

West Jefferson, Severní Karolína, Spojené státy americké

zeměpisná šířka: 36-26N, zeměpisná délka: 081-25W, výška: 969 m

Aktuální stav počasí

Zpráva byla vytvořena před 34 minutami, v 01:35 UTC
Bezvětří
Teplota 18°C
Vlhkost vzduchu 94%
Tlak 1020 hPa
Viditelnost: 16.1 km
Oblačno až skoro zataženo ve výšce 3800 ft
Oblačno až skoro zataženo ve výšce 4800 ft
Zataženo ve výšce 6000 ft

METAR: KGEV 300135Z AUTO 00000KT 10SM BKN038 BKN048 OVC060 18/17 A3013 RMK AO2 LTG DSNT SW T01770170

Čas: 22:09 (02:09 UTC)


TAF: chybějící

Stav a předpovědi počasí z více než 4 000 letišť (zprávy METAR a TAF).

Červené a žluté tečky na mapě představují dostupné meteorologické stanice.

Když kurzor umístíte na tečku, zobrazí se název stanice.

Pak kliknutím zobrazíte stav a předpověď počasí.

Chcete-li změnit mapu, kliknutím na zelené tlačítko se znaménkem +mapu přiblížíte, kliknutím na zelené tlačítko se znaménkem – mapu oddálíte a kliknutím na zelené šipky přejdete na sousední mapy.


METAR-TAF: